1J0 weather

Tri-County Airport
Bonifay, Florida, United States

Public forecast

Using degrees Fahrenheit for public forecast. Weather courtesy of forecast.io.

METAR (pilot weather report)

Retrieved 2018/07/15 20:58 UTC (1 hour ago):

K1J0 152058Z AUTO VRB05KT 10SM TS CLR 26/23 A3003 RMK AO2 SLP127 T02610228 53003 $

TAF (pilot weather forecast)

Forecast is more than 6 hours old.

Closest forecast is Cairns AAF (Fort Rucker) Air Field, 26.4 nm (49.0 km) NNW. Retrieved 2018/07/15 16:06 UTC (6 hours ago):

TAF KOZR 151600Z 1516/1622 18006KT 9999 FEW050 QNH3004INS BECMG 1517/1518 18008KT 8000 -SHRA VCTS BKN050CB QNH3000INS TEMPO 1518/1520 VRB12G20KT 4800 -TSRA BKN025CB BECMG 1523/1524 20006KT 9999 NSW BKN030 QNH3002INS BECMG 1608/1609 VRB06KT 9999 BKN015 QNH3005INS BECMG 1612/1613 18006KT 9999 FEW025 SCT050 QNH3006INS BECMG 1617/1618 18008KT 8000 -SHRA VCTS BKN050CB QNH3001INS TX33/1521Z TN25/1609Z